Startpagina
METAR-TAF:

METAR-TAF

Vliegvelden :

Rarotonga, Cookeilanden

breedte: 21-12S, lengte: 159-49W, hoogte: 7 m

Actueel weer

Dit bericht is 2 uur en het 7 minuten geleden gemaakt, om 00:00 UTC
Wind 8 kt uit het oostnoordoosten
Temperatuur 29°C
Vochtigheid 66%
Druk 1013 hPa
Zicht 10 km of meer
Weinig wolken op 2300 ft
Gebroken wolken op 29000 ft

METAR: NCRG 210000Z 06008KT 9999 FEW023 BKN290 29/22 Q1013

Tijdstip: 16:07 (02:07 UTC)

Verwachting

Dit bericht is 3 uur en het 0 minuten geleden gemaakt, om 23:07 UTC
Verwachting geldig van 21 om 00 UTC tot 21 om 24 UTC
Wind 10 kt uit het oostzuidoosten
Zicht 10 km of meer
Verspreide wolken op 2000 ft
Gebroken wolken op 10000 ft
Kans 30% :
Tijdelijke
van 21 om 06 UTC tot 21 om 12 UTC
Zicht: 5000 m
Gebroken wolken op 1500 ft
regenbuien

TAF: NCRG 202307Z 2100/2124 11010KT 9999 SCT020 BKN100 PROB30 TEMPO 2106/2112 5000 SHRA BKN015

Waarnemingen en weersverwachtingen van meer dan 4000 vliegvelden (METAR en TAF).

De beschikbare stations zijn de gele en rode punten op de kaart.

Ga met uw muis naar het station om de naam te zien.

Klik dan om waarnemingen en weersverwachtingen te zien.

kaart wijzigen: klik op de groene knoppen met een zwart kruis om in te zoomen, op de groene knop met een streepje om uit te zoomen of op de groene pijlen voor aangrenzende kaarten.


METAR-TAF: